createdAt,value
2023-01-20T00:00:29.254Z,22.6
2023-01-20T00:02:35.463Z,32.2
2023-01-20T00:04:41.566Z,28.1
2023-01-20T00:06:47.793Z,25.2
2023-01-20T00:08:56.861Z,25.4
2023-01-20T00:11:03.002Z,22.7
2023-01-20T00:13:09.152Z,25.8
2023-01-20T00:15:15.730Z,27.8
2023-01-20T00:17:21.483Z,30.3
2023-01-20T00:19:27.638Z,24.8
2023-01-20T00:21:33.811Z,24
2023-01-20T00:25:49.036Z,29.2
2023-01-20T00:27:55.204Z,21.8
2023-01-20T00:32:27.166Z,25.9
2023-01-20T00:34:33.298Z,30.1
2023-01-20T00:38:48.510Z,33.2
2023-01-20T00:40:54.694Z,39.7
2023-01-20T00:43:00.818Z,30
2023-01-20T00:53:34.483Z,26.2
2023-01-20T00:57:46.792Z,25.3
2023-01-20T01:01:59.294Z,29
2023-01-20T01:04:05.258Z,15
2023-01-20T01:08:20.499Z,24.1
2023-01-20T01:10:26.660Z,22.2
2023-01-20T01:16:45.133Z,22
2023-01-20T01:18:51.398Z,21.6
2023-01-20T01:21:00.423Z,25.7
2023-01-20T01:23:06.538Z,20.7
2023-01-20T01:25:13.055Z,17.3
2023-01-20T01:26:17.216Z,20.4
2023-01-20T01:28:23.405Z,27.4
2023-01-20T01:30:29.611Z,16
2023-01-20T01:32:35.755Z,17.9
2023-01-20T01:36:50.979Z,22.9
2023-01-20T01:38:58.861Z,30.7
2023-01-20T01:43:09.507Z,26.7
2023-01-20T01:45:16.028Z,28.8
2023-01-20T01:47:21.830Z,39.6
2023-01-20T01:49:30.937Z,32.7
2023-01-20T01:51:37.058Z,40.6
2023-01-20T01:55:49.434Z,36.9
2023-01-20T01:57:55.591Z,36.5
2023-01-20T02:00:01.809Z,31.3
2023-01-20T02:02:09.540Z,39.6
2023-01-20T02:08:30.856Z,57.4
2023-01-20T02:10:37.070Z,51.4
2023-01-20T02:12:43.220Z,49.1
2023-01-20T02:14:49.377Z,54.3
2023-01-20T02:16:55.577Z,65.3
2023-01-20T02:19:04.613Z,60.7
2023-01-20T02:21:10.789Z,56.6
2023-01-20T02:23:16.998Z,58.8
2023-01-20T02:24:21.484Z,61.9
2023-01-20T02:26:27.676Z,59.7
2023-01-20T02:30:40.223Z,61.7
2023-01-20T02:32:49.120Z,57.3
2023-01-20T02:34:55.246Z,63.3
2023-01-20T02:37:01.441Z,71.1
2023-01-20T02:39:07.613Z,68.7
2023-01-20T02:41:13.777Z,73.2
2023-01-20T02:43:19.951Z,55.9
2023-01-20T02:45:26.205Z,62.9
2023-01-20T02:47:35.217Z,65.5
2023-01-20T02:49:41.400Z,61.1
2023-01-20T02:51:47.540Z,53
2023-01-20T02:53:53.717Z,62.2
2023-01-20T02:55:59.912Z,60.8
2023-01-20T02:58:06.071Z,61.5
2023-01-20T03:00:12.246Z,66.2
2023-01-20T03:04:27.495Z,57.6
2023-01-20T03:08:39.832Z,59.2
2023-01-20T03:10:46.000Z,58.7
2023-01-20T03:14:58.331Z,53.8
2023-01-20T03:17:07.442Z,60.3
2023-01-20T03:19:13.601Z,62.2
2023-01-20T03:21:19.812Z,63.7
2023-01-20T03:24:30.523Z,63.2
2023-01-20T03:26:36.702Z,53.5
2023-01-20T03:28:42.849Z,50.2
2023-01-20T03:30:52.093Z,57.9
2023-01-20T03:32:58.136Z,56.2
2023-01-20T03:35:04.290Z,49.1
2023-01-20T03:37:10.474Z,52.8
2023-01-20T03:39:16.679Z,57.6
2023-01-20T03:41:22.998Z,49.1
2023-01-20T03:43:28.994Z,55.5
2023-01-20T03:45:38.128Z,55
2023-01-20T03:47:44.255Z,74.5
2023-01-20T03:49:50.516Z,53.3
2023-01-20T03:51:56.613Z,72.5
2023-01-20T03:54:02.808Z,68.6
2023-01-20T04:13:01.303Z,72.7
2023-01-20T04:15:10.398Z,69.5
2023-01-20T04:17:16.554Z,64.2
2023-01-20T04:21:48.837Z,65.3
2023-01-20T04:26:01.231Z,67.3
2023-01-20T04:28:10.304Z,72.5
2023-01-20T04:30:16.488Z,76.4
2023-01-20T04:32:22.658Z,56.9
2023-01-20T04:34:28.881Z,63.8
2023-01-20T04:36:35.059Z,75.8
2023-01-20T04:38:41.235Z,83.9
2023-01-20T04:40:47.421Z,80.8
2023-01-20T04:42:56.496Z,71.7
2023-01-20T04:47:08.902Z,79.8
2023-01-20T04:53:27.424Z,85
2023-01-20T04:55:33.589Z,81.6
2023-01-20T04:57:42.691Z,86.4
2023-01-20T05:06:07.402Z,93.6
2023-01-20T05:10:19.746Z,97.3
2023-01-20T05:12:28.844Z,94.8
2023-01-20T05:14:35.246Z,101.1
2023-01-20T05:16:41.172Z,106.2
2023-01-20T05:17:45.742Z,109.7
2023-01-20T05:19:51.924Z,104.8
2023-01-20T05:26:13.329Z,107.9
2023-01-20T05:28:19.515Z,111
2023-01-20T05:30:25.857Z,95
2023-01-20T05:32:31.866Z,121.8
2023-01-20T05:34:38.040Z,99.4
2023-01-20T05:36:44.197Z,96.1
2023-01-20T05:38:50.384Z,103.4
2023-01-20T05:43:05.653Z,107
2023-01-20T05:45:11.859Z,101.8
2023-01-20T05:47:18.007Z,105.9
2023-01-20T05:49:24.192Z,117.7
2023-01-20T05:51:30.358Z,113.4
2023-01-20T05:53:36.528Z,112.1
2023-01-20T05:55:45.633Z,115.6
2023-01-20T05:57:51.799Z,123.1
2023-01-20T05:59:57.978Z,116.5
2023-01-20T06:06:16.499Z,104.8
2023-01-20T06:08:22.671Z,112.5
2023-01-20T06:10:31.747Z,131.5
2023-01-20T06:12:37.907Z,113.3
2023-01-20T06:14:44.093Z,98
2023-01-20T06:15:48.669Z,113.7
2023-01-20T06:17:54.814Z,94.4
2023-01-20T06:20:00.959Z,139.3
2023-01-20T06:26:22.406Z,108.6
2023-01-20T06:28:28.585Z,115.7
2023-01-20T06:30:34.887Z,133.2
2023-01-20T06:32:40.925Z,107.1
2023-01-20T06:36:53.251Z,109.1
2023-01-20T06:39:02.310Z,103.6
2023-01-20T06:41:08.496Z,105.7
2023-01-20T06:43:14.659Z,99.2
2023-01-20T06:45:20.822Z,115.9
2023-01-20T06:47:27.028Z,110
2023-01-20T06:49:33.161Z,107.1
2023-01-20T06:51:39.343Z,114.2
2023-01-20T06:58:00.782Z,79.4
2023-01-20T07:02:13.224Z,108
2023-01-20T07:04:19.271Z,101.1
2023-01-20T07:06:25.446Z,98.2
2023-01-20T07:08:34.524Z,97.4
2023-01-20T07:10:40.670Z,100.1
2023-01-20T07:12:46.875Z,86.5
2023-01-20T07:13:51.411Z,87.3
2023-01-20T07:15:57.656Z,79.8
2023-01-20T07:18:03.768Z,88.5
2023-01-20T07:20:09.954Z,91.5
2023-01-20T07:22:19.004Z,83.4
2023-01-20T07:24:25.188Z,85.9
2023-01-20T07:26:31.384Z,72.6
2023-01-20T07:28:37.559Z,99.9
2023-01-20T07:30:43.755Z,95.2
2023-01-20T07:32:49.963Z,81
2023-01-20T07:34:56.095Z,78.5
2023-01-20T07:37:05.171Z,83.5
2023-01-20T07:39:11.482Z,82.8
2023-01-20T07:41:17.527Z,112
2023-01-20T07:43:23.716Z,96.4
2023-01-20T07:45:29.916Z,90.7
2023-01-20T07:47:36.049Z,87.8
2023-01-20T07:49:42.250Z,88.3
2023-01-20T07:53:57.528Z,84
2023-01-20T07:58:09.879Z,93.1
2023-01-20T08:02:22.231Z,85.8
2023-01-20T08:04:28.439Z,96.7
2023-01-20T08:06:39.039Z,100.2
2023-01-20T08:08:45.233Z,88.7
2023-01-20T08:10:51.484Z,86.3
2023-01-20T08:13:17.427Z,95.6
2023-01-20T08:15:23.612Z,89.8
2023-01-20T08:17:29.803Z,88.4
2023-01-20T08:19:38.846Z,89.3
2023-01-20T08:21:45.072Z,90
2023-01-20T08:23:51.218Z,97.2
2023-01-20T08:30:09.795Z,87.4
2023-01-20T08:34:25.051Z,95.1
2023-01-20T08:36:31.273Z,90.9
2023-01-20T08:47:02.175Z,91.3
2023-01-20T08:49:11.285Z,92.1
2023-01-20T08:51:17.542Z,81.5
2023-01-20T08:53:23.703Z,78.9
2023-01-20T08:55:29.857Z,92.3
2023-01-20T09:01:48.461Z,87.1
2023-01-20T09:04:05.739Z,94.9
2023-01-20T09:06:03.757Z,98.8
2023-01-20T09:08:09.928Z,106.9
2023-01-20T09:13:26.850Z,89.2
2023-01-20T09:15:33.133Z,102.8
2023-01-20T09:19:48.342Z,95.5
2023-01-20T09:21:54.540Z,95.4
2023-01-20T09:24:00.747Z,94.6
2023-01-20T09:28:13.125Z,114.5
2023-01-20T09:30:19.342Z,89.9
2023-01-20T09:32:28.421Z,101.5
2023-01-20T09:34:34.632Z,108.8
2023-01-20T09:36:40.928Z,105.9
2023-01-20T09:38:47.073Z,111.1
2023-01-20T09:40:53.243Z,110.9
2023-01-20T09:42:59.433Z,95.2
2023-01-20T09:45:05.640Z,106.1
2023-01-20T09:47:14.742Z,87.7
2023-01-20T09:49:20.929Z,84.1
2023-01-20T09:51:27.138Z,109.8
2023-01-20T09:53:33.345Z,89.7
2023-01-20T09:55:39.545Z,114.6
2023-01-20T10:02:01.076Z,102.4
2023-01-20T10:04:07.297Z,97.6
2023-01-20T10:06:13.473Z,106.5
2023-01-20T10:07:18.012Z,113.7
2023-01-20T10:09:24.236Z,112.6
2023-01-20T10:11:30.455Z,86.1
2023-01-20T10:17:51.961Z,93
2023-01-20T10:19:58.180Z,88.1
2023-01-20T10:22:04.398Z,86.7
2023-01-20T10:24:10.596Z,102
2023-01-20T10:28:23.031Z,98.7
2023-01-20T10:30:32.169Z,87.6
2023-01-20T10:32:38.351Z,90.7
2023-01-20T10:34:44.555Z,85.8
2023-01-20T10:36:50.824Z,76.9
2023-01-20T10:38:57.013Z,103.3
2023-01-20T10:41:03.242Z,75.3
2023-01-20T10:43:09.494Z,95.1
2023-01-20T10:45:18.592Z,81
2023-01-20T10:47:24.831Z,104
2023-01-20T10:49:31.009Z,81.4
2023-01-20T10:53:43.457Z,63.5
2023-01-20T10:55:49.709Z,86.9
2023-01-20T10:57:55.889Z,78
2023-01-20T11:00:05.035Z,76.5
2023-01-20T11:02:12.647Z,99.5
2023-01-20T11:04:17.454Z,93.1
2023-01-20T11:05:22.043Z,78.6
2023-01-20T11:07:28.249Z,80.5
2023-01-20T11:11:40.706Z,83.4
2023-01-20T11:13:49.792Z,80.7
2023-01-20T11:20:08.512Z,85.9
2023-01-20T11:22:14.707Z,72.6
2023-01-20T11:24:20.941Z,65.6
2023-01-20T11:26:28.414Z,67
2023-01-20T11:28:36.286Z,91.3
2023-01-20T11:30:42.547Z,68.9
2023-01-20T11:32:48.754Z,70
2023-01-20T11:34:54.991Z,66.5
2023-01-20T11:37:01.222Z,73.3
2023-01-20T11:39:07.444Z,66.9
2023-01-20T11:41:13.668Z,68.2
2023-01-20T11:43:22.784Z,74.7
2023-01-20T11:45:29.036Z,64.2
2023-01-20T11:51:47.778Z,85.7
2023-01-20T11:56:00.186Z,81.1
2023-01-20T11:58:09.325Z,71.7
2023-01-20T12:06:53.282Z,69.1
2023-01-20T12:08:59.507Z,68
2023-01-20T12:11:08.663Z,72.2
2023-01-20T12:13:14.863Z,69.4
2023-01-20T12:15:21.120Z,65.3
2023-01-20T12:17:27.345Z,65.1
2023-01-20T12:19:33.578Z,64.7
2023-01-20T12:21:39.851Z,67.8
2023-01-20T12:25:55.248Z,63.3
2023-01-20T12:28:01.483Z,65.5
2023-01-20T12:30:07.673Z,58
2023-01-20T12:32:14.004Z,57.1
2023-01-20T12:36:26.393Z,63.7
2023-01-20T12:38:32.613Z,52.7
2023-01-20T12:40:41.775Z,52.7
2023-01-20T12:42:48.013Z,49.4
2023-01-20T12:47:00.469Z,47.7
2023-01-20T12:53:19.203Z,48.8
2023-01-20T12:55:28.353Z,48.5
2023-01-20T12:57:34.587Z,46.9
2023-01-20T12:59:40.827Z,45.5
2023-01-20T13:04:57.859Z,40.1
2023-01-20T13:11:19.474Z,52.4
2023-01-20T13:13:25.687Z,49.5
2023-01-20T13:15:31.969Z,40
2023-01-20T13:17:38.201Z,44.4
2023-01-20T13:22:06.508Z,33.6
2023-01-20T13:23:59.834Z,35.9
2023-01-20T13:28:12.286Z,36.4
2023-01-20T13:30:18.511Z,39
2023-01-20T13:32:24.789Z,43.3
2023-01-20T13:34:30.992Z,37.1
2023-01-20T13:36:37.248Z,36.3
2023-01-20T13:38:46.409Z,43.3
2023-01-20T13:40:52.665Z,38.4
2023-01-20T13:42:58.887Z,33.6
2023-01-20T13:45:05.094Z,34.4
2023-01-20T13:47:11.327Z,36.2
2023-01-20T13:53:33.117Z,38.2
2023-01-20T13:55:39.144Z,43.1
2023-01-20T13:57:45.386Z,32.8
2023-01-20T13:58:49.944Z,32.8
2023-01-20T14:00:56.183Z,36.9
2023-01-20T14:03:02.420Z,36.1
2023-01-20T14:05:08.645Z,38
2023-01-20T14:07:19.385Z,29.4
2023-01-20T14:09:25.563Z,30.2
2023-01-20T14:11:31.779Z,32.8
2023-01-20T14:15:44.368Z,34.9
2023-01-20T14:22:05.889Z,30.5
2023-01-20T14:24:12.093Z,33.4
2023-01-20T14:26:18.323Z,31.9
2023-01-20T14:28:24.549Z,35.3
2023-01-20T14:30:30.807Z,41.3
2023-01-20T14:32:37.000Z,54
2023-01-20T14:34:43.251Z,36.5
2023-01-20T14:36:52.364Z,41.1
2023-01-20T14:38:58.906Z,30.9
2023-01-20T14:41:04.844Z,41.1
2023-01-20T14:43:11.066Z,53
2023-01-20T14:45:17.324Z,35.8
2023-01-20T14:47:23.527Z,34.6
2023-01-20T14:53:45.134Z,38
2023-01-20T14:55:51.370Z,37.9
2023-01-20T14:56:55.929Z,48.3
2023-01-20T14:59:02.166Z,38.2
2023-01-20T15:01:08.382Z,44.5
2023-01-20T15:03:14.674Z,43.6
2023-01-20T15:05:23.767Z,53.2
2023-01-20T15:07:29.989Z,50.9
2023-01-20T15:09:36.275Z,42.9
2023-01-20T15:11:42.483Z,45.9
2023-01-20T15:13:48.723Z,50.7
2023-01-20T15:15:55.040Z,53.7
2023-01-20T15:18:01.194Z,47.8
2023-01-20T15:24:22.798Z,58.3
2023-01-20T15:26:29.057Z,60.9
2023-01-20T15:28:35.280Z,59.9
2023-01-20T15:30:41.578Z,52.4
2023-01-20T15:32:47.741Z,57.1
2023-01-20T15:37:03.124Z,58.5
2023-01-20T15:39:09.327Z,58.2
2023-01-20T15:41:15.608Z,58.2
2023-01-20T15:43:21.791Z,63.6
2023-01-20T15:45:28.117Z,59
2023-01-20T15:47:34.290Z,56.6
2023-01-20T15:49:43.414Z,62.1
2023-01-20T15:51:49.661Z,70.7
2023-01-20T15:53:55.890Z,64.9
2023-01-20T15:56:21.753Z,61.9
2023-01-20T15:58:27.973Z,63
2023-01-20T16:00:34.166Z,65.2
2023-01-20T16:02:43.367Z,75.5
2023-01-20T16:04:49.547Z,78
2023-01-20T16:06:55.758Z,62.6
2023-01-20T16:11:08.254Z,76.8
2023-01-20T16:17:29.844Z,74.6
2023-01-20T16:19:36.060Z,60.6
2023-01-20T16:23:48.545Z,68.6
2023-01-20T16:25:55.359Z,62.3
2023-01-20T16:30:07.795Z,62.5
2023-01-20T16:34:23.133Z,66.6
2023-01-20T16:36:29.379Z,62.6
2023-01-20T16:40:41.791Z,71.7
2023-01-20T16:42:48.072Z,227.4
2023-01-20T16:47:03.375Z,73.7
2023-01-20T16:52:20.374Z,66
2023-01-20T16:56:32.799Z,73.1
2023-01-20T16:58:39.047Z,66.6
2023-01-20T17:00:48.244Z,71.4
2023-01-20T17:02:54.339Z,78.7
2023-01-20T17:05:00.515Z,74
2023-01-20T17:07:06.685Z,73.2
2023-01-20T17:09:12.884Z,86.5
2023-01-20T17:11:19.047Z,101.5
2023-01-20T17:13:25.251Z,77.2
2023-01-20T17:17:40.501Z,78.7
2023-01-20T17:19:46.686Z,71.6
2023-01-20T17:23:59.030Z,71.1
2023-01-20T17:26:05.186Z,75.3
2023-01-20T17:28:11.336Z,72
2023-01-20T17:30:20.429Z,77.3
2023-01-20T17:32:26.565Z,70.4
2023-01-20T17:34:32.723Z,74.7
2023-01-20T17:36:38.918Z,88.7
2023-01-20T17:38:45.150Z,73.3
2023-01-20T17:40:51.236Z,85.6
2023-01-20T17:42:57.377Z,88.8
2023-01-20T17:45:06.464Z,91.1
2023-01-20T17:47:12.606Z,89.6
2023-01-20T17:49:18.713Z,92.9
2023-01-20T17:52:29.384Z,79.1
2023-01-20T17:54:35.564Z,105
2023-01-20T17:58:50.723Z,105.2
2023-01-20T18:00:56.914Z,85.4
2023-01-20T18:03:02.986Z,93.9
2023-01-20T18:05:09.129Z,86.9
2023-01-20T18:07:15.261Z,101.1
2023-01-20T18:09:21.407Z,98.1
2023-01-20T18:11:27.556Z,91.3
2023-01-20T18:13:36.537Z,121.5
2023-01-20T18:17:48.818Z,95.7
2023-01-20T18:22:01.098Z,72
2023-01-20T18:24:07.244Z,90.4
2023-01-20T18:28:22.351Z,108.9
2023-01-20T18:30:28.485Z,136.3
2023-01-20T18:32:34.607Z,146.9
2023-01-20T18:34:40.733Z,93
2023-01-20T18:36:46.885Z,106.4
2023-01-20T18:40:59.099Z,131.7
2023-01-20T18:43:08.095Z,110.3
2023-01-20T18:45:14.240Z,107.4
2023-01-20T18:47:20.401Z,100.1
2023-01-20T18:48:24.887Z,117
2023-01-20T18:52:37.073Z,107.1
2023-01-20T18:56:52.193Z,118.9
2023-01-20T19:01:04.414Z,122.8
2023-01-20T19:03:10.531Z,115.8
2023-01-20T19:05:16.583Z,116.1
2023-01-20T19:07:22.684Z,129.3
2023-01-20T19:09:28.787Z,118.8
2023-01-20T19:11:37.766Z,129.8
2023-01-20T19:15:50.081Z,130.8
2023-01-20T19:17:56.048Z,121.9
2023-01-20T19:22:08.238Z,112.7
2023-01-20T19:24:14.350Z,101.9
2023-01-20T19:26:23.327Z,89.4
2023-01-20T19:30:35.550Z,111.3
2023-01-20T19:32:41.585Z,102.2
2023-01-20T19:34:47.683Z,104.9
2023-01-20T19:36:53.787Z,107.4
2023-01-20T19:38:59.867Z,94.5
2023-01-20T19:43:14.939Z,118
2023-01-20T19:49:53.012Z,211.1
2023-01-20T19:51:59.158Z,226.6
2023-01-20T20:00:26.807Z,141.8
2023-01-20T20:02:32.947Z,108.9
2023-01-20T20:04:38.981Z,97.2
2023-01-20T20:08:54.088Z,120.3
2023-01-20T20:11:00.680Z,133.6
2023-01-20T20:13:06.691Z,121.8
2023-01-20T20:15:12.777Z,99.7
2023-01-20T20:17:18.897Z,111.2
2023-01-20T20:21:31.083Z,131.4
2023-01-20T20:25:46.155Z,121.2
2023-01-20T20:27:52.263Z,106.5
2023-01-20T20:29:58.358Z,106
2023-01-20T20:32:04.475Z,111.3
2023-01-20T20:34:10.545Z,101.2
2023-01-20T20:36:16.598Z,109.4
2023-01-20T20:40:31.663Z,135.2
2023-01-20T20:42:37.742Z,125.6
2023-01-20T20:43:42.244Z,118.2
2023-01-20T20:47:54.410Z,112.1
2023-01-20T20:50:00.487Z,128.3
2023-01-20T20:52:09.474Z,142.8
2023-01-20T20:56:21.611Z,117.9
2023-01-20T20:58:27.715Z,130.4
2023-01-20T21:00:33.815Z,119.7
2023-01-20T21:04:45.944Z,132.4
2023-01-20T21:06:54.888Z,135.2
2023-01-20T21:09:01.004Z,120.6
2023-01-20T21:11:07.073Z,129.4
2023-01-20T21:13:13.118Z,117.5
2023-01-20T21:17:25.260Z,128.4
2023-01-20T21:19:31.340Z,111.6
2023-01-20T21:25:52.444Z,117.5
2023-01-20T21:27:58.520Z,115.3
2023-01-20T21:30:04.595Z,124.4
2023-01-20T21:32:10.653Z,121.6
2023-01-20T21:34:16.750Z,131.8
2023-01-20T21:36:25.699Z,128.4
2023-01-20T21:38:31.764Z,124.7
2023-01-20T21:41:42.325Z,111.1
2023-01-20T21:52:15.583Z,109.3
2023-01-20T21:54:21.647Z,129.6
2023-01-20T21:58:33.798Z,130.2
2023-01-20T22:11:13.191Z,129.5
2023-01-20T22:13:19.280Z,147.6
2023-01-20T22:15:25.364Z,143
2023-01-20T22:17:31.441Z,151
2023-01-20T22:21:46.500Z,134.8
2023-01-20T22:23:52.559Z,193.7
2023-01-20T22:25:58.671Z,136.6
2023-01-20T22:28:04.724Z,154.5
2023-01-20T22:30:10.805Z,139.4
2023-01-20T22:32:16.905Z,166.5
2023-01-20T22:36:31.950Z,165.2
2023-01-20T22:38:38.072Z,172.2
2023-01-20T22:39:42.536Z,169.9
2023-01-20T22:41:48.623Z,194.7
2023-01-20T22:43:54.694Z,154.4
2023-01-20T22:46:00.835Z,157.7
2023-01-20T22:50:16.077Z,158
2023-01-20T22:52:21.873Z,169.7
2023-01-20T22:54:27.978Z,172.8
2023-01-20T22:56:34.011Z,154.7
2023-01-20T22:58:40.112Z,149.2
2023-01-20T23:00:46.150Z,157.5
2023-01-20T23:02:55.145Z,201.3
2023-01-20T23:05:01.171Z,174.5
2023-01-20T23:07:07.240Z,145.4
2023-01-20T23:09:13.303Z,167.2
2023-01-20T23:11:19.348Z,150.1
2023-01-20T23:13:25.406Z,167.4
2023-01-20T23:15:31.473Z,155.2
2023-01-20T23:17:40.418Z,160.8
2023-01-20T23:19:46.479Z,159.9
2023-01-20T23:21:52.558Z,160.6
2023-01-20T23:30:16.995Z,160.9
2023-01-20T23:32:25.706Z,160.7
2023-01-20T23:34:31.766Z,148
2023-01-20T23:36:37.832Z,132.6
2023-01-20T23:41:07.654Z,155
2023-01-20T23:43:13.695Z,132
2023-01-20T23:45:22.677Z,145
2023-01-20T23:55:52.907Z,128
2023-01-20T23:57:58.951Z,122.8
